createdAt,value
2022-12-28T00:01:33.772Z,5.75
2022-12-28T00:04:04.677Z,5.95
2022-12-28T00:06:34.331Z,6.50
2022-12-28T00:09:05.683Z,5.10
2022-12-28T00:11:35.419Z,5.50
2022-12-28T00:14:05.186Z,5.60
2022-12-28T00:16:35.459Z,5.40
2022-12-28T00:19:06.225Z,5.90
2022-12-28T00:21:35.903Z,5.00
2022-12-28T00:24:36.637Z,5.10
2022-12-28T00:27:12.158Z,4.97
2022-12-28T00:32:56.260Z,4.10
2022-12-28T00:35:32.365Z,4.30
2022-12-28T00:38:06.778Z,4.20
2022-12-28T00:40:36.925Z,4.20
2022-12-28T00:43:06.193Z,4.00
2022-12-28T00:45:35.432Z,3.50
2022-12-28T00:48:06.348Z,3.90
2022-12-28T00:50:37.797Z,4.20
2022-12-28T00:53:07.365Z,4.20
2022-12-28T00:55:36.810Z,4.20
2022-12-28T00:58:08.217Z,3.90
2022-12-28T01:00:38.207Z,3.15
2022-12-28T01:03:07.932Z,3.70
2022-12-28T01:05:39.907Z,3.80
2022-12-28T01:08:11.389Z,3.40
2022-12-28T01:10:41.552Z,3.10
2022-12-28T01:13:11.514Z,2.90
2022-12-28T01:15:40.892Z,3.20
2022-12-28T01:18:12.674Z,2.90
2022-12-28T01:20:45.336Z,3.20
2022-12-28T01:23:14.718Z,3.30
2022-12-28T01:25:44.156Z,3.20
2022-12-28T01:28:13.590Z,3.50
2022-12-28T01:30:44.867Z,3.65
2022-12-28T01:33:14.491Z,3.27
2022-12-28T01:35:44.005Z,2.90
2022-12-28T01:38:14.395Z,3.63
2022-12-28T01:40:44.127Z,3.30
2022-12-28T01:43:15.018Z,3.85
2022-12-28T01:45:59.447Z,3.60
2022-12-28T01:48:28.786Z,3.20
2022-12-28T01:50:59.191Z,3.27
2022-12-28T01:53:28.771Z,3.45
2022-12-28T01:55:58.106Z,2.65
2022-12-28T01:58:30.322Z,3.20
2022-12-28T02:03:31.590Z,3.00
2022-12-28T02:06:02.952Z,2.70
2022-12-28T02:08:33.877Z,2.67
2022-12-28T02:11:04.135Z,2.45
2022-12-28T02:13:34.381Z,2.95
2022-12-28T02:16:05.138Z,3.55
2022-12-28T02:18:34.711Z,3.07
2022-12-28T02:21:21.615Z,3.30
2022-12-28T02:24:05.324Z,2.70
2022-12-28T02:26:39.125Z,3.03
2022-12-28T02:29:29.349Z,2.75
2022-12-28T02:32:03.164Z,3.10
2022-12-28T02:34:39.117Z,3.40
2022-12-28T02:37:11.806Z,3.20
2022-12-28T02:42:11.558Z,3.05
2022-12-28T02:45:02.772Z,2.93
2022-12-28T02:47:53.548Z,3.05
2022-12-28T02:50:25.226Z,3.20
2022-12-28T02:53:08.945Z,3.27
2022-12-28T02:56:04.739Z,3.50
2022-12-28T02:58:47.301Z,3.05
2022-12-28T03:03:50.945Z,3.00
2022-12-28T03:06:44.561Z,3.40
2022-12-28T03:09:16.636Z,3.60
2022-12-28T03:11:51.036Z,3.25
2022-12-28T03:14:24.112Z,3.50
2022-12-28T03:17:13.250Z,3.15
2022-12-28T03:20:08.396Z,4.00
2022-12-28T03:22:58.238Z,3.00
2022-12-28T03:25:48.574Z,3.50
2022-12-28T03:28:38.814Z,3.20
2022-12-28T03:31:10.893Z,3.50
2022-12-28T03:33:48.936Z,2.75
2022-12-28T03:36:23.353Z,3.20
2022-12-28T03:38:56.173Z,3.00
2022-12-28T03:41:30.042Z,3.60
2022-12-28T03:44:09.263Z,3.30
2022-12-28T03:46:43.121Z,3.70
2022-12-28T03:49:12.991Z,3.40
2022-12-28T03:51:43.147Z,3.33
2022-12-28T03:54:15.817Z,4.03
2022-12-28T03:56:46.910Z,3.55
2022-12-28T03:59:16.940Z,3.80
2022-12-28T04:01:48.571Z,3.33
2022-12-28T04:04:19.871Z,3.58
2022-12-28T04:06:50.131Z,3.10
2022-12-28T04:09:19.710Z,2.90
2022-12-28T04:11:50.107Z,3.50
2022-12-28T04:14:26.201Z,3.50
2022-12-28T04:16:55.998Z,3.25
2022-12-28T04:19:25.671Z,3.43
2022-12-28T04:21:54.978Z,3.57
2022-12-28T04:24:24.399Z,3.40
2022-12-28T04:26:53.927Z,4.45
2022-12-28T04:29:23.646Z,3.30
2022-12-28T04:32:02.633Z,3.20
2022-12-28T04:34:32.216Z,3.20
2022-12-28T04:37:11.474Z,3.40
2022-12-28T04:39:56.167Z,3.15
2022-12-28T04:42:26.465Z,3.45
2022-12-28T04:44:55.871Z,3.35
2022-12-28T04:47:25.427Z,3.50
2022-12-28T04:49:55.021Z,3.40
2022-12-28T04:52:24.543Z,3.45
2022-12-28T04:54:53.935Z,3.45
2022-12-28T04:57:23.456Z,3.70
2022-12-28T04:59:52.830Z,3.90
2022-12-28T05:02:22.236Z,3.15
2022-12-28T05:04:51.822Z,2.90
2022-12-28T05:07:21.145Z,3.50
2022-12-28T05:09:50.669Z,3.15
2022-12-28T05:12:22.009Z,3.13
2022-12-28T05:14:51.216Z,3.10
2022-12-28T05:17:20.698Z,3.80
2022-12-28T05:19:50.316Z,3.35
2022-12-28T05:22:20.149Z,4.55
2022-12-28T05:24:49.529Z,3.50
2022-12-28T05:27:19.019Z,3.80
2022-12-28T05:29:48.563Z,3.60
2022-12-28T05:32:17.845Z,3.80
2022-12-28T05:34:47.629Z,3.55
2022-12-28T05:37:21.818Z,3.50
2022-12-28T05:39:51.760Z,3.97
2022-12-28T05:42:21.104Z,3.40
2022-12-28T05:44:50.640Z,3.37
2022-12-28T05:47:19.939Z,3.15
2022-12-28T05:49:49.344Z,3.33
2022-12-28T05:52:18.686Z,3.90
2022-12-28T05:54:48.137Z,3.73
2022-12-28T05:57:17.638Z,3.80
2022-12-28T05:59:47.038Z,3.05
2022-12-28T06:02:23.044Z,3.75
2022-12-28T06:04:54.027Z,3.25
2022-12-28T06:07:23.316Z,3.40
2022-12-28T06:09:52.520Z,4.00
2022-12-28T06:12:21.818Z,3.63
2022-12-28T06:14:51.013Z,3.25
2022-12-28T06:17:21.128Z,3.40
2022-12-28T06:19:56.101Z,3.33
2022-12-28T06:22:31.412Z,3.57
2022-12-28T06:25:07.365Z,3.75
2022-12-28T06:27:43.146Z,4.10
2022-12-28T06:30:19.327Z,3.40
2022-12-28T06:32:55.284Z,3.55
2022-12-28T06:35:31.616Z,3.83
2022-12-28T06:38:06.953Z,4.20
2022-12-28T06:43:39.653Z,3.97
2022-12-28T06:46:15.187Z,3.77
2022-12-28T06:48:51.267Z,3.83
2022-12-28T06:51:27.788Z,4.20
2022-12-28T06:54:03.787Z,4.13
2022-12-28T06:56:40.364Z,4.30
2022-12-28T06:59:15.876Z,4.47
2022-12-28T07:01:52.676Z,5.03
2022-12-28T07:04:31.474Z,4.57
2022-12-28T07:07:06.852Z,4.90
2022-12-28T07:09:42.680Z,4.60
2022-12-28T07:12:18.218Z,4.20
2022-12-28T07:14:55.014Z,4.93
2022-12-28T07:17:28.764Z,4.40
2022-12-28T07:20:03.880Z,5.33
2022-12-28T07:22:36.349Z,4.75
2022-12-28T07:25:11.129Z,4.40
2022-12-28T07:27:46.826Z,4.90
2022-12-28T07:32:55.052Z,4.10
2022-12-28T07:35:30.283Z,4.97
2022-12-28T07:38:06.029Z,4.57
2022-12-28T07:40:38.879Z,4.30
2022-12-28T07:43:12.774Z,4.50
2022-12-28T07:45:48.222Z,4.35
2022-12-28T07:48:23.623Z,4.35
2022-12-28T07:50:58.922Z,4.60
2022-12-28T07:53:34.574Z,4.30
2022-12-28T07:56:13.171Z,4.85
2022-12-28T08:01:21.569Z,4.40
2022-12-28T08:04:03.794Z,4.60
2022-12-28T08:06:40.228Z,5.10
2022-12-28T08:09:16.034Z,5.15
2022-12-28T08:11:52.908Z,4.80
2022-12-28T08:14:27.911Z,4.85
2022-12-28T08:17:01.324Z,4.75
2022-12-28T08:19:36.512Z,4.40
2022-12-28T08:22:12.187Z,4.80
2022-12-28T08:24:48.376Z,4.10
2022-12-28T08:27:19.520Z,3.80
2022-12-28T08:29:50.224Z,4.00
2022-12-28T08:32:19.675Z,3.70
2022-12-28T08:34:55.885Z,3.63
2022-12-28T08:37:29.585Z,3.75
2022-12-28T08:40:02.640Z,3.50
2022-12-28T08:42:35.169Z,3.77
2022-12-28T08:45:09.635Z,4.23
2022-12-28T08:47:44.992Z,3.85
2022-12-28T08:50:23.768Z,3.65
2022-12-28T08:53:02.138Z,3.85
2022-12-28T08:55:41.175Z,3.45
2022-12-28T08:58:20.704Z,3.90
2022-12-28T09:03:37.488Z,5.20
2022-12-28T09:06:22.878Z,5.35
2022-12-28T11:15:29.529Z,3.10
2022-12-28T11:18:03.959Z,2.77
2022-12-28T11:20:39.751Z,2.52
2022-12-28T11:23:19.267Z,2.70
2022-12-28T11:25:54.401Z,3.00
2022-12-28T11:28:29.881Z,2.90
2022-12-28T11:31:07.616Z,2.93
2022-12-28T12:10:55.079Z,2.83
2022-12-28T12:13:45.807Z,3.70
2022-12-28T12:16:35.661Z,3.57
2022-12-28T12:19:15.568Z,3.40
2022-12-28T12:21:58.767Z,4.23
2022-12-28T12:24:37.754Z,3.50
2022-12-28T12:27:21.117Z,3.60
2022-12-28T12:30:03.672Z,3.10
2022-12-28T12:32:44.521Z,3.45
2022-12-28T12:35:22.808Z,3.50
2022-12-28T12:38:02.634Z,3.00
2022-12-28T12:41:17.523Z,3.00
2022-12-28T12:44:07.097Z,3.33
2022-12-28T12:47:15.737Z,2.70
2022-12-28T12:50:19.914Z,3.47
2022-12-28T12:53:05.511Z,3.10
2022-12-28T12:55:58.036Z,3.40
2022-12-28T12:58:44.456Z,3.50
2022-12-28T13:01:30.437Z,3.77
2022-12-28T13:04:17.926Z,3.23
2022-12-28T13:06:58.465Z,3.10
2022-12-28T13:26:15.951Z,3.70
2022-12-28T13:28:54.908Z,3.30
2022-12-28T13:31:33.352Z,2.60
2022-12-28T13:34:19.242Z,3.43
2022-12-28T13:36:51.544Z,2.93
2022-12-28T13:41:54.799Z,3.00
2022-12-28T13:44:36.771Z,3.13
2022-12-28T13:47:14.807Z,3.13
2022-12-28T13:49:49.921Z,3.37
2022-12-28T13:52:26.672Z,3.20
2022-12-28T13:54:59.790Z,3.43
2022-12-28T13:57:51.501Z,3.30
2022-12-28T14:00:24.014Z,2.97
2022-12-28T14:02:57.167Z,3.53
2022-12-28T14:05:30.553Z,3.90
2022-12-28T14:08:02.551Z,3.20
2022-12-28T14:10:35.264Z,2.90
2022-12-28T14:13:13.594Z,3.13
2022-12-28T14:15:44.982Z,3.57
2022-12-28T14:20:52.347Z,3.80
2022-12-28T14:23:25.839Z,3.67
2022-12-28T14:25:58.622Z,6.50
2022-12-28T14:28:35.140Z,8.37
2022-12-28T14:31:07.615Z,9.20
2022-12-28T14:33:41.876Z,7.67
2022-12-28T14:36:22.043Z,6.50
2022-12-28T14:38:58.322Z,5.40
2022-12-28T14:41:34.630Z,4.80
2022-12-28T14:44:09.585Z,4.80
2022-12-28T14:46:40.643Z,4.67
2022-12-28T14:49:37.553Z,4.30
2022-12-28T14:52:37.321Z,5.67
2022-12-28T14:55:22.930Z,7.03
2022-12-28T14:57:58.023Z,7.90
2022-12-28T15:00:29.998Z,7.07
2022-12-28T15:03:15.536Z,6.97
2022-12-28T15:05:51.389Z,7.00
2022-12-28T15:08:22.767Z,6.37
2022-12-28T15:10:54.686Z,5.93
2022-12-28T15:13:26.219Z,5.53
2022-12-28T15:15:59.043Z,6.20
2022-12-28T15:18:30.936Z,5.80
2022-12-28T15:21:06.687Z,5.50
2022-12-28T15:23:36.746Z,5.40
2022-12-28T15:26:08.922Z,6.57
2022-12-28T15:28:39.247Z,6.17
2022-12-28T15:31:12.267Z,6.27
2022-12-28T15:33:43.828Z,6.83
2022-12-28T15:36:17.935Z,6.12
2022-12-28T15:38:49.532Z,6.60
2022-12-28T15:41:37.291Z,6.70
2022-12-28T15:44:08.606Z,6.60
2022-12-28T15:46:39.155Z,6.60
2022-12-28T15:49:11.300Z,7.90
2022-12-28T15:51:41.622Z,8.10
2022-12-28T15:54:12.788Z,8.43
2022-12-28T15:56:43.299Z,9.60
2022-12-28T15:59:15.665Z,11.40
2022-12-28T16:01:47.007Z,14.93
2022-12-28T16:04:17.737Z,17.15
2022-12-28T16:06:48.270Z,18.87
2022-12-28T16:09:18.181Z,19.20
2022-12-28T16:11:53.194Z,19.47
2022-12-28T16:14:25.596Z,22.40
2022-12-28T16:16:55.978Z,25.03
2022-12-28T16:19:26.226Z,33.47
2022-12-28T16:21:56.550Z,36.03
2022-12-28T16:24:28.449Z,36.40
2022-12-28T16:26:58.426Z,37.73
2022-12-28T16:29:28.540Z,36.30
2022-12-28T16:32:01.548Z,34.03
2022-12-28T16:34:31.846Z,34.30
2022-12-28T16:37:02.790Z,32.47
2022-12-28T16:39:34.338Z,30.07
2022-12-28T16:42:06.304Z,29.03
2022-12-28T16:44:36.827Z,27.95
2022-12-28T16:47:07.382Z,26.63
2022-12-28T16:49:40.572Z,25.47
2022-12-28T16:52:10.664Z,24.77
2022-12-28T16:54:40.775Z,22.97
2022-12-28T16:57:10.907Z,23.23
2022-12-28T16:59:41.013Z,23.53
2022-12-28T17:02:14.613Z,21.27
2022-12-28T17:04:45.780Z,21.77
2022-12-28T17:07:16.891Z,20.33
2022-12-28T17:09:50.103Z,21.97
2022-12-28T17:12:20.615Z,21.47
2022-12-28T17:14:50.734Z,22.50
2022-12-28T17:17:20.848Z,28.53
2022-12-28T17:19:51.176Z,35.33
2022-12-28T17:22:22.105Z,33.57
2022-12-28T17:27:22.348Z,25.50
2022-12-28T17:29:51.810Z,24.90
2022-12-28T17:32:22.071Z,26.10
2022-12-28T17:34:52.080Z,25.47
2022-12-28T17:37:22.195Z,24.70
2022-12-28T17:39:52.518Z,22.93
2022-12-28T17:42:22.648Z,22.07
2022-12-28T17:44:52.207Z,20.07
2022-12-28T17:47:22.264Z,20.50
2022-12-28T17:49:52.183Z,21.47
2022-12-28T17:52:23.317Z,19.10
2022-12-28T17:54:53.634Z,19.70
2022-12-28T17:57:24.548Z,18.90
2022-12-28T17:59:54.123Z,17.43
2022-12-28T18:02:24.854Z,17.73
2022-12-28T18:04:55.338Z,20.37
2022-12-28T18:07:25.449Z,21.47
2022-12-28T18:09:56.523Z,21.03
2022-12-28T18:12:26.918Z,19.93
2022-12-28T18:14:56.877Z,19.27
2022-12-28T18:17:27.559Z,19.50
2022-12-28T18:19:57.880Z,21.97
2022-12-28T18:22:27.998Z,29.37
2022-12-28T18:24:58.934Z,29.20
2022-12-28T18:27:28.846Z,29.07
2022-12-28T18:29:59.189Z,30.27
2022-12-28T18:32:29.101Z,28.37
2022-12-28T18:34:59.234Z,27.65
2022-12-28T18:37:29.523Z,24.03
2022-12-28T18:39:59.231Z,21.57
2022-12-28T18:42:30.991Z,19.77
2022-12-28T18:45:00.540Z,20.33
2022-12-28T18:47:32.659Z,19.70
2022-12-28T18:50:03.804Z,21.23
2022-12-28T18:52:35.572Z,20.55
2022-12-28T18:55:09.479Z,20.70
2022-12-28T18:57:39.686Z,21.12
2022-12-28T19:00:12.560Z,19.70
2022-12-28T19:02:42.837Z,19.95
2022-12-28T19:05:13.324Z,21.50
2022-12-28T19:07:49.153Z,21.40
2022-12-28T19:10:21.528Z,22.05
2022-12-28T19:12:51.237Z,21.82
2022-12-28T19:15:21.038Z,20.27
2022-12-28T19:17:50.660Z,20.45
2022-12-28T19:20:20.364Z,20.60
2022-12-28T19:22:50.080Z,20.95
2022-12-28T19:25:19.570Z,20.75
2022-12-28T19:27:49.072Z,20.70
2022-12-28T19:30:19.399Z,20.90
2022-12-28T19:32:50.142Z,22.10
2022-12-28T19:35:21.270Z,20.57
2022-12-28T19:37:51.611Z,23.05
2022-12-28T19:40:21.724Z,20.87
2022-12-28T19:42:51.834Z,22.17
2022-12-28T19:45:21.739Z,20.90
2022-12-28T19:47:51.671Z,20.63
2022-12-28T19:50:23.200Z,21.37
2022-12-28T19:52:53.527Z,22.60
2022-12-28T19:55:23.441Z,25.40
2022-12-28T19:57:53.762Z,27.63
2022-12-28T20:00:23.880Z,35.10
2022-12-28T20:02:53.906Z,41.33
2022-12-28T20:05:25.344Z,33.43
2022-12-28T20:07:55.664Z,26.37
2022-12-28T20:10:25.987Z,23.93
2022-12-28T20:12:56.723Z,23.67
2022-12-28T20:15:26.633Z,26.37
2022-12-28T20:17:56.958Z,29.33
2022-12-28T20:20:30.567Z,30.53
2022-12-28T20:23:03.333Z,30.63
2022-12-28T20:25:34.066Z,28.53
2022-12-28T20:28:05.008Z,27.83
2022-12-28T20:30:35.746Z,27.53
2022-12-28T20:33:05.650Z,26.23
2022-12-28T20:35:36.384Z,24.83
2022-12-28T20:38:08.560Z,23.03
2022-12-28T20:40:38.663Z,24.47
2022-12-28T20:43:24.549Z,24.47
2022-12-28T20:45:54.869Z,24.07
2022-12-28T20:48:24.801Z,24.37
2022-12-28T20:50:58.056Z,25.07
2022-12-28T20:53:29.318Z,25.17
2022-12-28T20:56:08.077Z,24.20
2022-12-28T20:58:38.985Z,22.93
2022-12-28T21:01:11.619Z,25.13
2022-12-28T21:03:41.970Z,23.97
2022-12-28T21:06:12.195Z,24.40
2022-12-28T21:08:41.911Z,25.10
2022-12-28T21:11:12.637Z,25.03
2022-12-28T21:13:44.885Z,24.70
2022-12-28T21:16:15.568Z,24.23
2022-12-28T21:18:45.242Z,23.55
2022-12-28T21:21:16.184Z,24.45
2022-12-28T21:23:46.499Z,25.13
2022-12-28T21:26:17.252Z,24.70
2022-12-28T21:28:47.150Z,23.60
2022-12-28T21:31:16.674Z,24.53
2022-12-28T21:33:46.351Z,25.85
2022-12-28T21:36:16.678Z,24.77
2022-12-28T21:38:46.999Z,25.40
2022-12-28T21:41:38.427Z,26.30
2022-12-28T21:44:09.139Z,25.05
2022-12-28T21:46:39.483Z,25.70
2022-12-28T21:49:09.586Z,26.35
2022-12-28T21:51:40.317Z,25.83
2022-12-28T21:54:12.504Z,27.05
2022-12-28T21:56:43.017Z,25.48
2022-12-28T21:59:13.547Z,26.15
2022-12-28T22:01:58.364Z,27.03
2022-12-28T22:04:46.750Z,26.10
2022-12-28T22:07:17.063Z,27.10
2022-12-28T22:10:04.595Z,28.10
2022-12-28T22:12:34.295Z,27.25
2022-12-28T22:15:24.503Z,28.10
2022-12-28T22:17:56.778Z,28.95
2022-12-28T22:20:26.582Z,29.60
2022-12-28T22:22:56.476Z,28.50
2022-12-28T22:25:27.008Z,29.50
2022-12-28T22:27:57.535Z,27.15
2022-12-28T22:30:27.646Z,28.90
2022-12-28T22:32:57.774Z,27.77
2022-12-28T22:35:28.296Z,29.07
2022-12-28T22:37:58.209Z,28.10
2022-12-28T22:40:27.706Z,27.60
2022-12-28T22:42:57.415Z,27.15
2022-12-28T22:45:26.987Z,27.75
2022-12-28T22:47:59.020Z,25.50
2022-12-28T22:50:28.648Z,25.32
2022-12-28T22:52:58.912Z,25.63
2022-12-28T22:55:29.049Z,25.05
2022-12-28T22:57:58.938Z,25.35
2022-12-28T23:00:28.584Z,27.67
2022-12-28T23:02:59.445Z,28.15
2022-12-28T23:05:29.699Z,27.53
2022-12-28T23:08:00.054Z,28.05
2022-12-28T23:10:30.144Z,27.27
2022-12-28T23:13:00.260Z,27.33
2022-12-28T23:15:29.735Z,28.05
2022-12-28T23:18:19.335Z,27.00
2022-12-28T23:21:07.475Z,28.85
2022-12-28T23:23:55.204Z,28.75
2022-12-28T23:26:42.933Z,26.85
2022-12-28T23:29:12.860Z,28.30
2022-12-28T23:31:42.351Z,29.45
2022-12-28T23:34:12.480Z,29.55
2022-12-28T23:36:41.973Z,30.00
2022-12-28T23:39:11.677Z,32.30
2022-12-28T23:41:50.411Z,34.20
2022-12-28T23:44:20.929Z,37.25
2022-12-28T23:46:55.240Z,37.90
2022-12-28T23:49:28.333Z,41.35
2022-12-28T23:51:58.037Z,41.10
2022-12-28T23:54:27.950Z,43.07
2022-12-28T23:56:58.477Z,46.45
2022-12-28T23:59:28.596Z,42.70
